Time;durP1;ratioP1;P1;durP2;ratioP2;P2;SDS_P1;SDS_P2;PMS_P1;PMS_P2;Temp;Humidity;BMP_temperature;BMP_pressure;BME280_temperature;BME280_humidity;BME280_pressure;Samples;Min_cycle;Max_cycle;Signal;HPM_P1;HPM_P2
2022/10/18 00:00:04;;;;;;;25.75;18.12;;;;;;;10.16;86.23;99354.13;1770091;80;20923;-59
2022/10/18 00:02:31;;;;;;;25.23;16.75;;;;;;;10.14;86.37;99342.88;1768439;80;20880;-59
2022/10/18 00:04:58;;;;;;;25.15;17.87;;;;;;;10.11;86.45;99343.34;1768940;80;21213;-59
2022/10/18 00:07:25;;;;;;;27.22;17.77;;;;;;;10.06;86.64;99342.77;1769289;80;21022;-59
2022/10/18 00:09:51;;;;;;;30.55;18.60;;;;;;;10.03;86.84;99335.23;1769670;80;21386;-59
2022/10/18 00:12:19;;;;;;;28.87;17.20;;;;;;;10.03;87.09;99340.59;1770134;80;21055;-59
2022/10/18 00:14:50;;;;;;;25.92;17.37;;;;;;;10.04;87.12;99330.70;1770313;80;20931;-59
2022/10/18 00:17:16;;;;;;;34.95;17.42;;;;;;;10.04;87.13;99332.04;1770203;80;21468;-59
2022/10/18 00:19:43;;;;;;;25.32;16.82;;;;;;;10.00;87.15;99327.73;1769238;80;20991;-59
2022/10/18 00:22:10;;;;;;;24.15;16.75;;;;;;;9.98;87.31;99329.05;1769736;80;20972;-59
2022/10/18 00:24:37;;;;;;;25.55;16.93;;;;;;;9.94;87.38;99324.72;1770820;80;20948;-59
2022/10/18 00:27:03;;;;;;;29.87;17.40;;;;;;;9.90;87.60;99326.83;1770343;80;20915;-59
2022/10/18 00:29:30;;;;;;;27.93;18.37;;;;;;;9.88;87.92;99329.77;1769775;80;21151;-59
2022/10/18 00:31:57;;;;;;;30.05;17.73;;;;;;;9.92;88.15;99324.70;1769636;80;20979;-59
2022/10/18 00:34:25;;;;;;;31.37;17.37;;;;;;;9.95;88.11;99321.00;1768500;80;21003;-58
2022/10/18 00:36:51;;;;;;;28.77;17.50;;;;;;;9.97;88.09;99321.55;1769162;80;20896;-59
2022/10/18 00:39:19;;;;;;;26.00;17.77;;;;;;;9.99;88.05;99306.56;1769300;80;21581;-59
2022/10/18 00:41:47;;;;;;;26.65;17.40;;;;;;;10.02;88.05;99310.08;1768361;80;21218;-59
2022/10/18 00:44:28;;;;;;;25.55;17.30;;;;;;;10.03;87.94;99307.13;1771169;80;21487;-59
2022/10/18 00:47:02;;;;;;;28.73;18.52;;;;;;;10.04;87.77;99310.62;1769176;80;20963;-59
2022/10/18 00:49:34;;;;;;;23.60;18.07;;;;;;;9.93;87.43;99305.73;1770022;80;20900;-59
2022/10/18 00:52:09;;;;;;;24.80;18.17;;;;;;;9.93;87.43;99305.73;1768440;80;21448;-59
2022/10/18 00:54:38;;;;;;;24.93;16.63;;;;;;;9.89;87.74;99302.48;1770553;80;21228;-59
2022/10/18 00:57:05;;;;;;;25.68;17.17;;;;;;;9.82;87.94;99297.86;1766471;80;20967;-59
2022/10/18 00:59:32;;;;;;;25.37;17.85;;;;;;;9.81;88.14;99294.38;1770160;80;21015;-59
2022/10/18 01:02:00;;;;;;;27.62;18.00;;;;;;;9.79;88.20;99295.69;1770248;80;21468;-59
2022/10/18 01:04:27;;;;;;;26.73;17.98;;;;;;;9.76;88.30;99294.84;1770120;80;20892;-59
2022/10/18 01:07:10;;;;;;;27.10;18.40;;;;;;;9.73;88.43;99296.71;1769439;80;22021;-59
2022/10/18 01:09:42;;;;;;;28.73;17.87;;;;;;;9.67;88.52;99295.84;1770926;80;20916;-59
2022/10/18 01:12:26;;;;;;;25.77;16.62;;;;;;;9.62;88.62;99292.59;1769699;80;20880;-59
2022/10/18 01:15:27;;;;;;;29.55;18.32;;;;;;;9.60;88.77;99287.21;1768283;80;21462;-59
2022/10/18 01:18:36;;;;;;;26.50;18.80;;;;;;;9.58;89.05;99287.48;1768731;80;20924;-59
2022/10/18 01:21:21;;;;;;;24.95;18.17;;;;;;;9.57;89.28;99291.20;1769884;80;21218;-59
2022/10/18 01:24:46;;;;;;;29.48;19.17;;;;;;;9.56;89.46;99284.22;1768479;80;20861;-58
2022/10/18 01:27:55;;;;;;;38.83;20.85;;;;;;;9.52;89.59;99280.44;1769825;80;21056;-58
2022/10/18 01:30:58;;;;;;;30.70;18.65;;;;;;;9.40;89.82;99275.77;1770342;80;20996;-59
2022/10/18 01:33:42;;;;;;;29.82;18.70;;;;;;;9.32;90.31;99268.21;1769205;80;21122;-58
2022/10/18 01:36:17;;;;;;;30.35;19.10;;;;;;;9.31;90.62;99263.91;1768924;80;21286;-59
2022/10/18 01:38:44;;;;;;;31.65;19.27;;;;;;;9.30;90.90;99261.49;1770127;80;21352;-59
2022/10/18 01:41:11;;;;;;;23.62;18.37;;;;;;;9.31;91.22;99261.75;1771048;80;20877;-59
2022/10/18 01:43:39;;;;;;;26.25;17.70;;;;;;;9.32;91.16;99254.84;1769303;80;20988;-59
2022/10/18 01:46:06;;;;;;;31.85;18.95;;;;;;;9.31;91.12;99259.90;1771074;80;21546;-59
2022/10/18 01:48:33;;;;;;;28.05;18.50;;;;;;;9.28;91.08;99255.59;1720150;80;21169;-59
2022/10/18 01:51:00;;;;;;;27.37;18.00;;;;;;;9.23;91.17;99248.86;1746866;80;21579;-59
2022/10/18 01:53:30;;;;;;;30.88;18.82;;;;;;;9.21;91.35;99250.98;1770122;80;21003;-59
2022/10/18 01:56:17;;;;;;;26.45;18.55;;;;;;;9.19;91.52;99248.53;1770076;80;20927;-59
2022/10/18 01:58:54;;;;;;;29.63;19.40;;;;;;;9.12;91.71;99243.91;1771001;80;20904;-59
2022/10/18 02:01:48;;;;;;;26.45;19.15;;;;;;;9.10;92.04;99240.69;1770783;80;21227;-58
2022/10/18 02:04:29;;;;;;;26.62;18.80;;;;;;;9.10;92.21;99237.20;1769884;80;21066;-58
2022/10/18 02:07:10;;;;;;;29.52;18.90;;;;;;;9.08;92.36;99233.97;1771050;80;20971;-58
2022/10/18 02:09:45;;;;;;;26.90;18.07;;;;;;;9.06;92.61;99227.55;1767766;80;21309;-58
2022/10/18 02:12:11;;;;;;;32.28;18.62;;;;;;;9.02;92.74;99226.41;1769140;80;20956;-59
2022/10/18 02:14:39;;;;;;;30.95;20.57;;;;;;;8.98;92.85;99221.30;1770976;80;20955;-59
2022/10/18 02:17:08;;;;;;;29.02;19.12;;;;;;;8.92;92.98;99221.78;1771095;80;21428;-59
2022/10/18 02:19:42;;;;;;;26.17;18.62;;;;;;;8.89;93.09;99221.47;1769324;80;20964;-59
2022/10/18 02:22:10;;;;;;;25.32;18.10;;;;;;;8.84;93.26;99218.20;1770997;80;20924;-59
2022/10/18 02:24:44;;;;;;;24.98;18.27;;;;;;;8.81;93.44;99213.35;1770211;80;21467;-59
2022/10/18 02:27:10;;;;;;;30.77;19.30;;;;;;;8.81;93.62;99211.20;1747000;80;21108;-59
2022/10/18 02:29:39;;;;;;;31.25;19.23;;;;;;;8.82;93.78;99208.82;1770884;80;21098;-59
2022/10/18 02:32:31;;;;;;;30.12;20.37;;;;;;;8.80;93.90;99210.94;1770924;80;20861;-59
2022/10/18 02:35:09;;;;;;;29.52;18.32;;;;;;;8.78;93.91;99203.70;1770814;80;20967;-59
2022/10/18 02:37:38;;;;;;;30.72;19.20;;;;;;;8.73;94.07;99203.13;1769398;80;20845;-59
2022/10/18 02:40:07;;;;;;;31.05;19.00;;;;;;;8.73;94.22;99199.64;1770091;80;21993;-59
2022/10/18 02:42:45;;;;;;;29.45;19.60;;;;;;;8.75;94.56;99194.84;1769293;80;21471;-59
2022/10/18 02:45:12;;;;;;;28.98;19.45;;;;;;;8.79;94.62;99198.63;1748014;80;20887;-59
2022/10/18 02:47:38;;;;;;;33.50;19.87;;;;;;;8.81;94.59;99196.51;1770648;80;21416;-59
2022/10/18 02:50:06;;;;;;;27.75;19.35;;;;;;;8.80;94.52;99193.58;1768302;80;21066;-58
2022/10/18 02:52:34;;;;;;;28.83;18.60;;;;;;;8.79;94.59;99191.42;1768639;80;21098;-58
2022/10/18 02:55:00;;;;;;;31.75;19.75;;;;;;;8.78;94.75;99187.16;1769915;80;21400;-59
2022/10/18 02:57:29;;;;;;;29.42;20.00;;;;;;;8.80;94.77;99186.90;1770173;80;21655;-59
2022/10/18 02:59:56;;;;;;;27.15;18.07;;;;;;;8.83;94.98;99185.07;1770986;80;20975;-59
2022/10/18 03:02:22;;;;;;;30.17;20.48;;;;;;;8.88;94.85;99189.11;1769434;80;21507;-58
2022/10/18 03:04:49;;;;;;;26.40;19.45;;;;;;;8.92;94.75;99194.25;1771129;80;21101;-58
2022/10/18 03:07:16;;;;;;;27.40;18.80;;;;;;;8.91;94.55;99187.28;1770940;80;20935;-59
2022/10/18 03:09:42;;;;;;;27.35;18.48;;;;;;;8.89;94.50;99184.06;1769965;80;21533;-58
2022/10/18 03:12:09;;;;;;;32.70;20.60;;;;;;;8.90;94.58;99181.67;1769366;80;20856;-59
2022/10/18 03:14:37;;;;;;;32.95;20.43;;;;;;;8.90;94.59;99181.67;1771236;80;21445;-59
2022/10/18 03:17:04;;;;;;;29.50;21.02;;;;;;;8.93;94.53;99181.16;1770091;80;21063;-58
2022/10/18 03:19:31;;;;;;;31.42;20.30;;;;;;;8.92;94.43;99182.23;1771021;80;20876;-58
2022/10/18 03:21:57;;;;;;;32.60;19.87;;;;;;;8.91;94.46;99181.41;1770074;80;20877;-59
2022/10/18 03:24:24;;;;;;;29.75;19.05;;;;;;;8.92;94.48;99177.70;1770191;80;21373;-58
2022/10/18 03:26:50;;;;;;;26.62;19.77;;;;;;;8.94;94.56;99180.11;1771073;80;20916;-58
2022/10/18 03:29:17;;;;;;;28.52;20.12;;;;;;;8.97;94.55;99182.81;1771158;80;21668;-59
2022/10/18 03:31:43;;;;;;;38.20;21.02;;;;;;;8.98;94.56;99178.54;1761172;80;20960;-59
2022/10/18 03:34:10;;;;;;;29.10;19.70;;;;;;;9.00;94.53;99176.42;1767928;80;21515;-59
2022/10/18 03:36:39;;;;;;;30.52;19.15;;;;;;;9.03;94.51;99177.27;1770987;80;20947;-59
2022/10/18 03:39:05;;;;;;;27.40;19.12;;;;;;;9.03;94.32;99175.92;1769277;80;20983;-59
2022/10/18 03:41:32;;;;;;;28.67;18.92;;;;;;;9.00;94.24;99172.97;1770052;80;21021;-59
2022/10/18 03:43:59;;;;;;;31.15;20.23;;;;;;;8.95;94.40;99169.69;1770860;80;20884;-59
2022/10/18 03:46:25;;;;;;;31.35;21.20;;;;;;;8.92;94.48;99168.87;1770081;80;20956;-59
2022/10/18 03:48:52;;;;;;;31.80;21.30;;;;;;;8.89;94.63;99164.02;1771042;80;20852;-59
2022/10/18 03:51:19;;;;;;;29.48;18.70;;;;;;;8.92;94.89;99171.54;1771104;80;20978;-59
2022/10/18 03:53:47;;;;;;;31.62;19.60;;;;;;;8.98;94.93;99167.04;1770012;80;20971;-59
2022/10/18 03:56:14;;;;;;;33.98;20.90;;;;;;;9.02;94.97;99160.94;1769285;80;21668;-59
2022/10/18 03:58:41;;;;;;;26.80;20.12;;;;;;;9.09;95.08;99156.20;1769416;80;21090;-59
2022/10/18 04:01:08;;;;;;;34.18;20.35;;;;;;;9.16;94.91;99154.13;1771065;80;20968;-59
2022/10/18 04:03:34;;;;;;;35.50;21.68;;;;;;;9.22;94.76;99155.81;1768671;80;21396;-59
2022/10/18 04:06:03;;;;;;;31.40;19.37;;;;;;;9.27;94.59;99154.52;1770164;80;21288;-59
2022/10/18 04:08:30;;;;;;;27.13;20.00;;;;;;;9.32;94.36;99153.23;1769353;80;21432;-59
2022/10/18 04:10:57;;;;;;;28.95;20.75;;;;;;;9.34;94.12;99153.78;1770224;80;20932;-59
2022/10/18 04:13:23;;;;;;;29.87;21.62;;;;;;;9.35;93.83;99154.60;1769336;80;20877;-59
2022/10/18 04:18:23;;;;;;;30.57;21.00;;;;;;;9.29;93.62;99148.91;1771110;80;21053;-59
2022/10/18 04:20:49;;;;;;;32.48;19.95;;;;;;;9.27;93.61;99149.17;1771120;80;20927;-59
2022/10/18 04:23:16;;;;;;;31.10;19.32;;;;;;;9.24;93.55;99142.99;1771042;80;21014;-59
2022/10/18 04:25:44;;;;;;;31.87;20.48;;;;;;;9.21;93.68;99142.16;1770312;80;21018;-59
2022/10/18 04:28:10;;;;;;;31.50;21.40;;;;;;;9.18;93.65;99140.01;1770261;80;20960;-59
2022/10/18 04:30:37;;;;;;;27.27;21.30;;;;;;;9.13;93.45;99143.97;1769857;80;21042;-60
2022/10/18 04:33:04;;;;;;;31.68;20.80;;;;;;;9.07;93.65;99141.50;1770184;80;21134;-59
2022/10/18 04:35:30;;;;;;;32.93;21.30;;;;;;;9.03;93.75;99142.52;1770156;80;20904;-60
2022/10/18 04:37:57;;;;;;;32.80;21.07;;;;;;;9.00;93.79;99141.68;1770158;80;20968;-60
2022/10/18 04:40:23;;;;;;;30.62;21.55;;;;;;;8.97;93.88;99140.87;1769265;80;20845;-60
2022/10/18 04:42:50;;;;;;;30.92;22.50;;;;;;;8.97;94.00;99138.20;1770093;80;21099;-60
2022/10/18 04:45:17;;;;;;;29.37;21.23;;;;;;;8.95;93.92;99138.95;1771045;80;20936;-60
2022/10/18 04:47:44;;;;;;;36.35;21.37;;;;;;;8.90;93.98;99138.92;1770266;80;21455;-60
2022/10/18 04:50:10;;;;;;;34.00;22.82;;;;;;;8.83;94.06;99138.31;1769777;80;20860;-60
2022/10/18 04:52:37;;;;;;;35.35;23.45;;;;;;;8.82;94.16;99134.02;1769923;80;21435;-60
2022/10/18 04:55:05;;;;;;;35.38;23.80;;;;;;;8.81;94.16;99137.21;1769151;80;21098;-59
2022/10/18 04:57:31;;;;;;;31.68;23.00;;;;;;;8.78;94.40;99138.26;1770009;80;20868;-60
2022/10/18 04:59:58;;;;;;;32.70;22.35;;;;;;;8.77;94.60;99132.63;1756986;80;21095;-60
2022/10/18 05:02:24;;;;;;;40.12;22.93;;;;;;;8.76;94.70;99129.69;1740604;79;20993;-59
2022/10/18 05:04:51;;;;;;;32.93;21.85;;;;;;;8.76;94.89;99131.03;1786634;79;20995;-59
2022/10/18 05:07:19;;;;;;;33.95;22.80;;;;;;;8.78;94.80;99128.91;1762298;81;21100;-59
2022/10/18 05:09:47;;;;;;;38.13;22.32;;;;;;;8.79;94.84;99125.16;1784902;78;21044;-59
2022/10/18 05:12:15;;;;;;;34.20;23.15;;;;;;;8.79;95.06;99123.83;1786235;78;21108;-59
2022/10/18 05:14:42;;;;;;;30.82;21.37;;;;;;;8.80;95.27;99121.45;1790425;78;20956;-59
2022/10/18 05:17:08;;;;;;;32.20;21.52;;;;;;;8.81;95.36;99126.53;1738616;80;21051;-59
2022/10/18 05:19:35;;;;;;;33.00;20.57;;;;;;;8.84;95.49;99126.55;1743821;80;21825;-59
2022/10/18 05:22:01;;;;;;;29.00;21.07;;;;;;;8.87;95.82;99130.06;1749503;80;20852;-59
2022/10/18 05:24:31;;;;;;;32.63;21.45;;;;;;;8.93;95.80;99120.51;1785900;79;21113;-59
2022/10/18 05:26:59;;;;;;;37.03;20.77;;;;;;;8.98;95.84;99127.77;1764641;80;21118;-58
2022/10/18 05:29:27;;;;;;;29.10;20.48;;;;;;;9.05;96.07;99115.01;1775340;79;21536;-59
2022/10/18 05:31:54;;;;;;;36.20;20.43;;;;;;;9.20;96.35;99123.19;1778123;80;21199;-59
2022/10/18 05:34:20;;;;;;;26.25;19.25;;;;;;;9.36;96.05;99122.25;1750721;81;21043;-59
2022/10/18 05:36:50;;;;;;;29.70;18.40;;;;;;;9.47;95.87;99118.59;1781320;79;20934;-59
2022/10/18 05:39:17;;;;;;;31.15;19.30;;;;;;;9.63;95.67;99113.62;1776132;79;21011;-59
2022/10/18 05:41:44;;;;;;;32.28;21.42;;;;;;;9.84;95.23;99118.60;1779526;79;21051;-59
2022/10/18 05:44:13;;;;;;;27.73;21.50;;;;;;;10.04;94.83;99119.23;1760211;81;20885;-59
2022/10/18 05:46:44;;;;;;;34.92;24.18;;;;;;;10.22;93.86;99119.63;1792411;78;21083;-59
2022/10/18 05:49:12;;;;;;;30.68;21.68;;;;;;;10.39;93.37;99111.96;1790622;79;20982;-59
2022/10/18 05:51:44;;;;;;;33.10;21.17;;;;;;;10.51;92.63;99110.66;1768052;79;20943;-59
2022/10/18 05:54:29;;;;;;;30.90;21.60;;;;;;;10.62;91.84;99117.64;1722564;79;20939;-59
2022/10/18 05:57:06;;;;;;;31.00;21.12;;;;;;;10.74;91.38;99120.12;1786027;78;21088;-59
2022/10/18 05:59:38;;;;;;;34.85;22.82;;;;;;;10.84;90.64;99120.94;1757111;81;21009;-59
2022/10/18 06:02:09;;;;;;;38.98;24.30;;;;;;;10.94;90.11;99131.69;1771774;80;20972;-58
2022/10/18 06:04:43;;;;;;;32.95;23.30;;;;;;;11.05;89.39;99132.50;1793472;79;21380;-62
2022/10/18 06:07:12;;;;;;;33.60;20.70;;;;;;;11.15;88.90;99131.72;1774206;79;22259;-58
2022/10/18 06:09:41;;;;;;;32.63;22.80;;;;;;;11.23;88.28;99135.23;1783957;78;21029;-59
2022/10/18 06:12:13;;;;;;;33.20;23.55;;;;;;;11.34;87.94;99135.50;1746873;79;20917;-59
2022/10/18 06:14:48;;;;;;;29.27;20.85;;;;;;;11.43;87.32;99137.91;1750805;79;20972;-60
2022/10/18 06:17:17;;;;;;;33.30;20.50;;;;;;;11.51;86.89;99134.17;1818478;78;21664;-60
2022/10/18 06:19:46;;;;;;;33.20;18.77;;;;;;;11.61;86.50;99137.40;1784576;79;21091;-59
2022/10/18 06:22:15;;;;;;;34.63;20.92;;;;;;;11.72;86.24;99136.34;1764039;79;21190;-58
2022/10/18 06:24:46;;;;;;;33.95;21.60;;;;;;;11.81;85.90;99133.38;1741179;79;21094;-59
2022/10/18 06:27:14;;;;;;;47.25;25.12;;;;;;;11.93;85.53;99135.77;1753029;79;21014;-61
2022/10/18 06:29:42;;;;;;;99.42;39.73;;;;;;;12.05;85.04;99136.29;1752834;79;21063;-60
2022/10/18 06:32:10;;;;;;;91.42;36.25;;;;;;;12.15;84.29;99138.40;1780394;79;20978;-60
2022/10/18 06:34:40;;;;;;;62.60;28.75;;;;;;;12.23;83.77;99138.38;1730768;80;21585;-60
2022/10/18 06:37:12;;;;;;;49.38;25.55;;;;;;;12.32;83.47;99147.48;1719870;80;20971;-59
2022/10/18 06:39:47;;;;;;;45.55;21.25;;;;;;;12.40;83.17;99145.59;1773618;80;20876;-59
2022/10/18 06:42:19;;;;;;;32.80;21.68;;;;;;;12.51;82.82;99147.16;1724932;79;21137;-59
2022/10/18 06:44:48;;;;;;;34.33;21.95;;;;;;;12.61;82.36;99144.97;1713353;81;21113;-59
2022/10/18 06:47:16;;;;;;;38.15;21.75;;;;;;;12.67;81.43;99141.98;1758532;79;21129;-60
2022/10/18 06:49:44;;;;;;;34.45;21.70;;;;;;;12.73;80.96;99141.42;1765785;78;21091;-61
2022/10/18 06:52:10;;;;;;;29.25;19.80;;;;;;;12.76;80.66;99142.22;1770650;79;20975;-61
2022/10/18 06:54:38;;;;;;;33.13;20.50;;;;;;;12.81;80.30;99142.20;1742419;80;21020;-61
2022/10/18 06:57:07;;;;;;;26.52;18.60;;;;;;;12.84;79.96;99138.94;1746144;80;21009;-60
2022/10/18 06:59:38;;;;;;;26.25;18.52;;;;;;;12.87;79.93;99137.05;1760409;79;21522;-59
2022/10/18 07:02:13;;;;;;;31.82;19.40;;;;;;;12.94;79.78;99133.52;1757630;79;21052;-59
2022/10/18 07:04:45;;;;;;;26.77;17.48;;;;;;;13.04;80.06;99142.88;1784024;78;21479;-58
2022/10/18 07:07:12;;;;;;;26.70;17.60;;;;;;;13.18;79.75;99143.09;1772949;79;21041;-59
2022/10/18 07:09:41;;;;;;;26.30;18.52;;;;;;;13.30;79.75;99136.28;1760109;79;21051;-59
2022/10/18 07:12:10;;;;;;;27.25;17.73;;;;;;;13.43;79.42;99132.13;1774279;78;21180;-59
2022/10/18 07:14:37;;;;;;;30.65;17.80;;;;;;;13.56;79.12;99140.39;1800550;78;21464;-59
2022/10/18 07:17:04;;;;;;;29.30;17.82;;;;;;;13.66;78.78;99137.59;1798205;79;20978;-59
2022/10/18 07:19:31;;;;;;;27.37;17.32;;;;;;;13.76;78.36;99131.86;1787546;79;21032;-59
2022/10/18 07:21:58;;;;;;;24.80;15.63;;;;;;;13.88;78.12;99129.59;1826984;78;20929;-58
2022/10/18 07:24:27;;;;;;;23.55;15.88;;;;;;;14.02;77.84;99134.57;1798606;78;21206;-62
2022/10/18 07:26:55;;;;;;;26.65;17.15;;;;;;;14.13;77.57;99129.36;1792718;79;21093;-60
2022/10/18 07:29:28;;;;;;;25.62;16.75;;;;;;;14.26;77.05;99134.05;1796017;79;20978;-62
2022/10/18 07:32:00;;;;;;;27.10;17.42;;;;;;;14.39;76.56;99126.64;1796100;79;20975;-59
2022/10/18 07:34:27;;;;;;;30.35;16.70;;;;;;;14.54;76.26;99127.02;1735125;79;21580;-60
2022/10/18 07:36:54;;;;;;;23.73;16.05;;;;;;;14.65;75.69;99124.47;1768654;78;21063;-65
2022/10/18 07:39:22;;;;;;;25.25;13.98;;;;;;;14.78;75.45;99123.20;1780078;79;21050;-58
2022/10/18 07:41:50;;;;;;;28.35;15.35;;;;;;;14.93;74.39;99120.86;1793534;78;21104;-61
2022/10/18 07:44:20;;;;;;;22.42;14.68;;;;;;;15.05;73.99;99121.20;1799292;78;21014;-59
2022/10/18 07:46:50;;;;;;;24.98;15.45;;;;;;;15.20;73.81;99124.23;1764492;79;21047;-59
2022/10/18 07:49:18;;;;;;;28.47;16.00;;;;;;;15.32;72.60;99116.48;1794328;78;21408;-59
2022/10/18 07:51:48;;;;;;;30.70;16.25;;;;;;;15.43;72.60;99113.88;1749009;79;21539;-59
2022/10/18 07:54:21;;;;;;;22.00;15.48;;;;;;;15.53;72.53;99115.09;1782223;79;21069;-59
2022/10/18 07:56:52;;;;;;;23.52;15.85;;;;;;;15.64;72.69;99117.87;1784999;79;21098;-60
2022/10/18 07:59:21;;;;;;;22.98;14.63;;;;;;;15.79;72.54;99114.92;1767516;80;21110;-60
2022/10/18 08:01:49;;;;;;;27.25;15.60;;;;;;;15.96;72.31;99111.66;1756104;79;21559;-59
2022/10/18 08:04:17;;;;;;;24.90;14.43;;;;;;;16.12;72.00;99109.73;1764846;79;21063;-61
2022/10/18 08:06:46;;;;;;;26.37;15.18;;;;;;;16.25;71.19;99106.22;1745415;81;21078;-60
2022/10/18 08:09:14;;;;;;;25.50;15.10;;;;;;;16.39;70.45;99107.02;1754171;79;21475;-59
2022/10/18 08:11:42;;;;;;;22.82;14.25;;;;;;;16.54;70.21;99108.66;1746907;79;21079;-59
2022/10/18 08:14:10;;;;;;;19.15;13.03;;;;;;;16.67;69.25;99101.64;1768849;79;21246;-58
2022/10/18 08:16:37;;;;;;;20.52;13.20;;;;;;;16.80;68.46;99096.73;1751333;79;21462;-59
2022/10/18 08:19:09;;;;;;;19.67;11.97;;;;;;;16.90;67.85;99100.59;1740745;80;21061;-59
2022/10/18 08:21:46;;;;;;;20.27;12.45;;;;;;;16.97;67.31;99091.49;1778271;79;21115;-58
2022/10/18 08:24:15;;;;;;;16.45;10.82;;;;;;;17.10;67.37;99094.70;1739707;80;20979;-62
2022/10/18 08:26:42;;;;;;;12.70;7.00;;;;;;;17.27;66.08;99093.48;1741263;80;21274;-62
2022/10/18 08:29:10;;;;;;;14.93;7.53;;;;;;;17.44;62.56;99087.41;1766946;79;21082;-58
2022/10/18 08:31:37;;;;;;;11.03;6.97;;;;;;;17.58;60.54;99084.09;1782201;79;21050;-58
2022/10/18 08:34:04;;;;;;;9.60;6.92;;;;;;;17.69;59.33;99084.89;1777776;79;21532;-60
2022/10/18 08:36:31;;;;;;;10.00;7.30;;;;;;;17.78;57.99;99078.17;1777158;79;21063;-58
2022/10/18 08:38:59;;;;;;;11.97;7.08;;;;;;;17.83;58.49;99074.53;1778438;78;21486;-58
2022/10/18 08:41:49;;;;;;;13.50;7.28;;;;;;;17.91;59.07;99069.70;1743474;79;21121;-57
2022/10/18 08:44:27;;;;;;;14.93;7.30;;;;;;;18.04;58.83;99072.30;1779864;79;21035;-59
2022/10/18 08:47:04;;;;;;;10.28;6.92;;;;;;;18.16;57.54;99066.31;1782637;79;21091;-57
2022/10/18 08:49:42;;;;;;;11.57;6.62;;;;;;;18.24;57.98;99064.17;1779226;78;21102;-59
2022/10/18 08:52:56;;;;;;;9.45;6.10;;;;;;;18.39;57.74;99054.26;1786493;79;21436;-59
2022/10/18 08:55:44;;;;;;;13.85;6.50;;;;;;;18.54;57.36;99052.47;1775336;79;21447;-62
2022/10/18 08:58:22;;;;;;;9.05;6.67;;;;;;;18.69;55.74;99046.59;1775694;79;21081;-59
2022/10/18 09:01:18;;;;;;;11.28;6.50;;;;;;;18.76;55.83;99043.41;1784622;79;21048;-59
2022/10/18 09:04:26;;;;;;;9.25;6.30;;;;;;;18.85;56.57;99048.28;1783917;79;21071;-57
2022/10/18 09:07:18;;;;;;;9.18;6.25;;;;;;;18.98;54.95;99042.69;1783968;79;21462;-59
2022/10/18 09:10:06;;;;;;;11.65;6.58;;;;;;;19.02;55.47;99041.50;1784352;79;21336;-59
2022/10/18 09:13:18;;;;;;;12.78;6.50;;;;;;;19.06;54.84;99032.95;1753593;80;21062;-58
2022/10/18 09:16:19;;;;;;;10.18;6.90;;;;;;;19.11;54.82;99034.95;1721446;80;21015;-59
2022/10/18 09:19:12;;;;;;;10.78;6.83;;;;;;;19.18;54.77;99025.51;1779494;79;21118;-59
2022/10/18 09:21:53;;;;;;;9.00;7.10;;;;;;;19.27;55.02;99019.50;1776958;79;21179;-59
2022/10/18 09:24:44;;;;;;;9.50;6.90;;;;;;;19.35;54.98;99022.77;1757578;80;40491;-59
2022/10/18 09:27:18;;;;;;;7.78;5.83;;;;;;;19.41;55.14;99017.43;1735862;80;21011;-59
2022/10/18 09:30:17;;;;;;;7.17;4.40;;;;;;;19.43;54.16;99018.70;1773723;79;21076;-60
2022/10/18 09:32:58;;;;;;;6.12;4.30;;;;;;;19.45;52.61;99008.89;1778766;79;20990;-59
2022/10/18 09:35:52;;;;;;;5.28;4.05;;;;;;;19.48;51.99;99012.30;1786441;79;21230;-60
2022/10/18 09:38:23;;;;;;;5.42;3.70;;;;;;;19.55;52.31;99013.95;1772727;80;20963;-61
2022/10/18 09:41:04;;;;;;;4.47;3.47;;;;;;;19.70;53.16;99005.29;1751868;80;20889;-59
2022/10/18 09:43:53;;;;;;;5.33;3.50;;;;;;;19.85;51.83;99001.24;1783951;78;21148;-60
2022/10/18 09:46:24;;;;;;;5.45;3.50;;;;;;;19.92;50.71;99005.05;1777851;79;21727;-58
2022/10/18 09:49:05;;;;;;;4.37;3.30;;;;;;;19.91;49.65;98998.01;1780513;79;21718;-60
2022/10/18 09:51:37;;;;;;;6.25;3.77;;;;;;;19.83;49.17;98993.42;1768984;79;21613;-59
2022/10/18 09:54:29;;;;;;;5.08;3.72;;;;;;;19.75;50.66;98992.89;1779778;79;21001;-58
2022/10/18 09:57:15;;;;;;;8.85;4.10;;;;;;;19.74;50.46;98985.28;1767099;79;21008;-58
2022/10/18 09:59:48;;;;;;;5.62;3.65;;;;;;;19.75;50.78;98986.09;1753989;81;21071;-60
2022/10/18 10:02:21;;;;;;;4.78;3.72;;;;;;;19.79;51.24;98974.80;1722242;79;21786;-61
2022/10/18 10:04:49;;;;;;;7.45;3.60;;;;;;;19.90;51.85;98978.76;1747461;79;21071;-60
2022/10/18 10:07:20;;;;;;;4.50;3.58;;;;;;;20.01;50.83;98973.17;1751300;80;21141;-61
2022/10/18 10:09:55;;;;;;;6.45;3.62;;;;;;;20.09;49.71;98962.80;1740936;79;21103;-63
2022/10/18 10:12:28;;;;;;;;;;;;;;;20.09;49.90;98959.30;1711592;81;21170;-58
2022/10/18 10:15:21;;;;;;;7.92;4.42;;;;;;;20.09;50.10;98958.72;1737175;79;20259;-59
2022/10/18 10:17:59;;;;;;;8.30;4.03;;;;;;;20.11;49.46;98959.21;1751935;81;21156;-60
2022/10/18 10:20:43;;;;;;;4.97;3.85;;;;;;;20.09;48.78;98956.00;1767059;80;21114;-60
2022/10/18 10:23:53;;;;;;;8.18;4.22;;;;;;;20.02;48.63;98952.23;1743133;79;21063;-65
2022/10/18 10:26:33;;;;;;;8.40;3.77;;;;;;;19.99;49.39;98945.52;1773585;79;22082;-57
2022/10/18 10:29:01;;;;;;;8.78;4.47;;;;;;;20.01;49.24;98942.46;1781074;79;21478;-59
2022/10/18 10:31:36;;;;;;;6.55;3.85;;;;;;;20.04;48.85;98948.05;1745450;80;21545;-60
2022/10/18 10:34:18;;;;;;;7.20;4.08;;;;;;;20.06;48.89;98951.23;1742900;81;21082;-61
2022/10/18 10:36:51;;;;;;;6.83;3.67;;;;;;;20.09;48.91;98935.60;1742079;81;20990;-61
2022/10/18 10:39:20;;;;;;;7.40;3.87;;;;;;;20.12;49.32;98930.88;1732464;81;21102;-60
2022/10/18 10:41:56;;;;;;;4.78;3.85;;;;;;;20.21;49.62;98932.97;1759200;79;21306;-57
2022/10/18 10:44:25;;;;;;;5.97;3.90;;;;;;;20.26;48.29;98930.09;1757376;80;21510;-59
2022/10/18 10:46:54;;;;;;;8.05;3.60;;;;;;;20.25;48.77;98927.71;1781504;79;21154;-62
2022/10/18 10:49:44;;;;;;;7.67;4.35;;;;;;;20.19;48.96;98926.27;1765389;79;21617;-59
2022/10/18 10:52:26;;;;;;;7.62;4.17;;;;;;;20.10;49.05;98925.52;1742825;79;21104;-60
2022/10/18 10:54:56;;;;;;;9.43;6.58;;;;;;;20.07;48.76;98920.19;1786990;79;22352;-59
2022/10/18 10:57:25;;;;;;;6.62;4.37;;;;;;;20.11;49.66;98913.53;1775257;79;21103;-59
2022/10/18 10:59:54;;;;;;;11.63;4.80;;;;;;;20.24;49.63;98907.86;1781402;79;21089;-62
2022/10/18 11:02:34;;;;;;;7.78;4.22;;;;;;;20.40;48.51;98907.50;1785717;79;21022;-62
2022/10/18 11:05:25;;;;;;;6.78;4.83;;;;;;;20.48;48.26;98898.23;1779033;79;21475;-59
2022/10/18 11:07:55;;;;;;;10.13;4.72;;;;;;;20.51;47.98;98897.02;1771690;80;21114;-61
2022/10/18 11:10:25;;;;;;;8.50;4.97;;;;;;;20.52;48.69;98882.83;1766670;79;21062;-60
2022/10/18 11:13:04;;;;;;;10.58;4.85;;;;;;;20.64;49.23;98885.05;1787151;79;21542;-60
2022/10/18 11:15:36;;;;;;;7.20;4.90;;;;;;;20.73;48.20;98879.51;1737281;80;21014;-61
2022/10/18 11:18:29;;;;;;;7.70;5.15;;;;;;;20.85;48.61;98870.83;1783833;78;21200;-59
2022/10/18 11:21:27;;;;;;;7.78;4.92;;;;;;;21.01;48.63;98870.97;1776060;80;21766;-60
2022/10/18 11:23:56;;;;;;;6.92;4.67;;;;;;;21.17;47.48;98874.69;1776060;79;21030;-59
2022/10/18 11:26:45;;;;;;;9.70;5.03;;;;;;;21.23;47.46;98867.88;1779228;79;21103;-57
2022/10/18 11:29:32;;;;;;;5.00;4.45;;;;;;;21.25;47.43;98857.42;1774949;79;21047;-60
2022/10/18 11:32:23;;;;;;;12.90;4.70;;;;;;;21.33;47.12;98856.54;1775608;79;21037;-60
2022/10/18 11:35:37;;;;;;;5.90;4.50;;;;;;;21.42;46.99;98852.33;1775242;79;21315;-58
2022/10/18 11:38:17;;;;;;;6.60;4.50;;;;;;;21.41;46.13;98846.08;1775985;79;21106;-64
2022/10/18 11:40:53;;;;;;;5.85;3.90;;;;;;;21.35;47.19;98846.66;1777518;79;21140;-58
2022/10/18 11:43:51;;;;;;;6.87;4.10;;;;;;;21.35;46.83;98838.48;1783163;78;21086;-60
2022/10/18 11:47:02;;;;;;;7.47;4.35;;;;;;;21.38;47.33;98835.88;1774167;79;21086;-63
2022/10/18 11:49:57;;;;;;;8.38;4.47;;;;;;;21.43;45.76;98826.69;1776247;79;21207;-60
2022/10/18 11:52:35;;;;;;;5.78;4.72;;;;;;;21.35;45.82;98821.56;1765728;80;21113;-61
2022/10/18 11:55:37;;;;;;;8.60;3.98;;;;;;;21.29;46.24;98816.10;1769942;79;21065;-64